Aviation Digital Data Service (ADDS)

Output produced by METARs form (0541 UTC 26 May 2022)
found at http://www.aviationweather.gov/metar/data/
 
KSIF 260535Z AUTO 00000KT 10SM SCT008 OVC015 16/16 A3027 RMK AO2 T01610160